sensor_id;sensor_type;location;lat;lon;timestamp;P1;durP1;ratioP1;P2;durP2;ratioP2
47161;SDS011;32921;53.256;8.198;2023-06-04T00:01:21;13.10;;;4.07;;
47161;SDS011;32921;53.256;8.198;2023-06-04T00:03:47;11.73;;;3.85;;
47161;SDS011;32921;53.256;8.198;2023-06-04T00:06:12;17.70;;;4.93;;
47161;SDS011;32921;53.256;8.198;2023-06-04T00:08:38;11.13;;;4.57;;
47161;SDS011;32921;53.256;8.198;2023-06-04T00:11:03;12.15;;;4.28;;
47161;SDS011;32921;53.256;8.198;2023-06-04T00:13:29;19.20;;;5.13;;
47161;SDS011;32921;53.256;8.198;2023-06-04T00:15:55;15.05;;;5.53;;
47161;SDS011;32921;53.256;8.198;2023-06-04T00:18:20;14.55;;;4.65;;
47161;SDS011;32921;53.256;8.198;2023-06-04T00:20:46;20.35;;;5.30;;
47161;SDS011;32921;53.256;8.198;2023-06-04T00:23:11;20.30;;;5.80;;
47161;SDS011;32921;53.256;8.198;2023-06-04T00:25:37;19.75;;;5.75;;
47161;SDS011;32921;53.256;8.198;2023-06-04T00:28:03;13.23;;;5.20;;
47161;SDS011;32921;53.256;8.198;2023-06-04T00:30:28;23.48;;;5.60;;
47161;SDS011;32921;53.256;8.198;2023-06-04T00:32:54;18.95;;;5.97;;
47161;SDS011;32921;53.256;8.198;2023-06-04T00:35:19;15.73;;;5.80;;
47161;SDS011;32921;53.256;8.198;2023-06-04T00:37:45;25.10;;;6.90;;
47161;SDS011;32921;53.256;8.198;2023-06-04T00:40:11;20.00;;;7.43;;
47161;SDS011;32921;53.256;8.198;2023-06-04T00:42:37;18.92;;;7.45;;
47161;SDS011;32921;53.256;8.198;2023-06-04T00:45:03;18.85;;;7.45;;
47161;SDS011;32921;53.256;8.198;2023-06-04T00:47:30;22.67;;;7.80;;
47161;SDS011;32921;53.256;8.198;2023-06-04T00:49:56;22.17;;;8.13;;
47161;SDS011;32921;53.256;8.198;2023-06-04T00:52:23;21.42;;;7.97;;
47161;SDS011;32921;53.256;8.198;2023-06-04T00:54:49;19.85;;;7.72;;
47161;SDS011;32921;53.256;8.198;2023-06-04T00:57:15;19.30;;;7.88;;
47161;SDS011;32921;53.256;8.198;2023-06-04T00:59:41;20.55;;;8.23;;
47161;SDS011;32921;53.256;8.198;2023-06-04T01:02:20;21.27;;;8.77;;
47161;SDS011;32921;53.256;8.198;2023-06-04T01:07:22;21.60;;;8.45;;
47161;SDS011;32921;53.256;8.198;2023-06-04T01:09:48;18.58;;;8.30;;
47161;SDS011;32921;53.256;8.198;2023-06-04T01:12:14;20.90;;;9.10;;
47161;SDS011;32921;53.256;8.198;2023-06-04T01:14:40;23.42;;;8.50;;
47161;SDS011;32921;53.256;8.198;2023-06-04T01:22:33;22.67;;;8.02;;
47161;SDS011;32921;53.256;8.198;2023-06-04T01:25:04;21.08;;;9.13;;
47161;SDS011;32921;53.256;8.198;2023-06-04T01:27:34;25.35;;;8.63;;
47161;SDS011;32921;53.256;8.198;2023-06-04T01:30:01;19.33;;;8.88;;
47161;SDS011;32921;53.256;8.198;2023-06-04T01:32:28;20.55;;;8.23;;
47161;SDS011;32921;53.256;8.198;2023-06-04T01:34:54;23.45;;;9.57;;
47161;SDS011;32921;53.256;8.198;2023-06-04T01:37:20;17.50;;;8.48;;
47161;SDS011;32921;53.256;8.198;2023-06-04T01:39:46;25.92;;;9.35;;
47161;SDS011;32921;53.256;8.198;2023-06-04T01:42:12;20.48;;;9.60;;
47161;SDS011;32921;53.256;8.198;2023-06-04T01:44:37;28.98;;;12.32;;
47161;SDS011;32921;53.256;8.198;2023-06-04T01:47:03;32.83;;;12.82;;
47161;SDS011;32921;53.256;8.198;2023-06-04T01:49:28;27.25;;;11.20;;
47161;SDS011;32921;53.256;8.198;2023-06-04T01:51:54;27.33;;;11.63;;
47161;SDS011;32921;53.256;8.198;2023-06-04T01:54:21;25.92;;;11.48;;
47161;SDS011;32921;53.256;8.198;2023-06-04T01:56:47;30.63;;;12.40;;
47161;SDS011;32921;53.256;8.198;2023-06-04T01:59:13;28.65;;;12.85;;
47161;SDS011;32921;53.256;8.198;2023-06-04T02:01:41;31.40;;;14.38;;
47161;SDS011;32921;53.256;8.198;2023-06-04T02:04:06;36.03;;;15.02;;
47161;SDS011;32921;53.256;8.198;2023-06-04T02:06:32;33.58;;;14.55;;
47161;SDS011;32921;53.256;8.198;2023-06-04T02:08:57;30.05;;;14.35;;
47161;SDS011;32921;53.256;8.198;2023-06-04T02:11:25;41.03;;;15.43;;
47161;SDS011;32921;53.256;8.198;2023-06-04T02:13:51;34.33;;;14.45;;
47161;SDS011;32921;53.256;8.198;2023-06-04T02:16:16;30.75;;;15.25;;
47161;SDS011;32921;53.256;8.198;2023-06-04T02:18:42;37.28;;;14.80;;
47161;SDS011;32921;53.256;8.198;2023-06-04T02:21:07;34.90;;;15.07;;
47161;SDS011;32921;53.256;8.198;2023-06-04T02:23:33;33.35;;;13.75;;
47161;SDS011;32921;53.256;8.198;2023-06-04T02:25:59;32.13;;;15.02;;
47161;SDS011;32921;53.256;8.198;2023-06-04T02:28:24;40.42;;;15.52;;
47161;SDS011;32921;53.256;8.198;2023-06-04T02:30:50;31.23;;;14.75;;
47161;SDS011;32921;53.256;8.198;2023-06-04T02:33:15;31.08;;;15.25;;
47161;SDS011;32921;53.256;8.198;2023-06-04T02:35:41;41.28;;;15.60;;
47161;SDS011;32921;53.256;8.198;2023-06-04T02:38:07;35.65;;;14.63;;
47161;SDS011;32921;53.256;8.198;2023-06-04T02:40:32;36.17;;;14.60;;
47161;SDS011;32921;53.256;8.198;2023-06-04T02:42:58;35.88;;;14.18;;
47161;SDS011;32921;53.256;8.198;2023-06-04T02:45:24;31.67;;;13.68;;
47161;SDS011;32921;53.256;8.198;2023-06-04T02:47:50;29.80;;;13.70;;
47161;SDS011;32921;53.256;8.198;2023-06-04T02:50:15;33.35;;;11.93;;
47161;SDS011;32921;53.256;8.198;2023-06-04T02:52:41;28.48;;;11.80;;
47161;SDS011;32921;53.256;8.198;2023-06-04T02:55:07;24.83;;;11.73;;
47161;SDS011;32921;53.256;8.198;2023-06-04T02:57:34;26.80;;;12.75;;
47161;SDS011;32921;53.256;8.198;2023-06-04T03:00:00;32.40;;;12.52;;
47161;SDS011;32921;53.256;8.198;2023-06-04T03:02:26;31.02;;;12.07;;
47161;SDS011;32921;53.256;8.198;2023-06-04T03:04:52;32.85;;;11.73;;
47161;SDS011;32921;53.256;8.198;2023-06-04T03:07:20;27.25;;;12.60;;
47161;SDS011;32921;53.256;8.198;2023-06-04T03:09:47;30.52;;;12.70;;
47161;SDS011;32921;53.256;8.198;2023-06-04T03:12:13;27.30;;;11.75;;
47161;SDS011;32921;53.256;8.198;2023-06-04T03:14:39;28.75;;;12.07;;
47161;SDS011;32921;53.256;8.198;2023-06-04T03:17:05;29.48;;;11.98;;
47161;SDS011;32921;53.256;8.198;2023-06-04T03:19:36;28.88;;;12.25;;
47161;SDS011;32921;53.256;8.198;2023-06-04T03:22:03;26.67;;;11.43;;
47161;SDS011;32921;53.256;8.198;2023-06-04T03:24:36;30.17;;;11.57;;
47161;SDS011;32921;53.256;8.198;2023-06-04T03:27:04;22.83;;;11.05;;
47161;SDS011;32921;53.256;8.198;2023-06-04T03:29:31;26.70;;;10.93;;
47161;SDS011;32921;53.256;8.198;2023-06-04T03:31:57;29.63;;;11.02;;
47161;SDS011;32921;53.256;8.198;2023-06-04T03:34:23;27.10;;;10.60;;
47161;SDS011;32921;53.256;8.198;2023-06-04T03:36:52;28.63;;;11.25;;
47161;SDS011;32921;53.256;8.198;2023-06-04T03:39:18;24.45;;;10.70;;
47161;SDS011;32921;53.256;8.198;2023-06-04T03:41:44;24.02;;;11.30;;
47161;SDS011;32921;53.256;8.198;2023-06-04T03:44:12;32.10;;;11.27;;
47161;SDS011;32921;53.256;8.198;2023-06-04T03:46:39;24.05;;;10.88;;
47161;SDS011;32921;53.256;8.198;2023-06-04T03:49:04;35.47;;;11.05;;
47161;SDS011;32921;53.256;8.198;2023-06-04T03:51:30;26.45;;;10.88;;
47161;SDS011;32921;53.256;8.198;2023-06-04T03:53:57;31.85;;;12.40;;
47161;SDS011;32921;53.256;8.198;2023-06-04T03:56:23;20.02;;;10.88;;
47161;SDS011;32921;53.256;8.198;2023-06-04T03:58:51;23.85;;;10.52;;
47161;SDS011;32921;53.256;8.198;2023-06-04T04:01:17;22.88;;;10.18;;
47161;SDS011;32921;53.256;8.198;2023-06-04T04:03:43;21.48;;;10.25;;
47161;SDS011;32921;53.256;8.198;2023-06-04T04:06:13;25.35;;;10.77;;
47161;SDS011;32921;53.256;8.198;2023-06-04T04:08:39;24.05;;;10.80;;
47161;SDS011;32921;53.256;8.198;2023-06-04T04:11:07;22.45;;;10.95;;
47161;SDS011;32921;53.256;8.198;2023-06-04T04:13:33;22.63;;;10.10;;
47161;SDS011;32921;53.256;8.198;2023-06-04T04:15:58;24.45;;;10.65;;
47161;SDS011;32921;53.256;8.198;2023-06-04T04:18:24;23.27;;;10.63;;
47161;SDS011;32921;53.256;8.198;2023-06-04T04:20:50;32.47;;;10.77;;
47161;SDS011;32921;53.256;8.198;2023-06-04T04:23:16;26.70;;;10.82;;
47161;SDS011;32921;53.256;8.198;2023-06-04T04:25:42;20.52;;;10.60;;
47161;SDS011;32921;53.256;8.198;2023-06-04T04:28:09;25.98;;;11.45;;
47161;SDS011;32921;53.256;8.198;2023-06-04T04:30:35;20.90;;;9.65;;
47161;SDS011;32921;53.256;8.198;2023-06-04T04:33:01;24.70;;;9.88;;
47161;SDS011;32921;53.256;8.198;2023-06-04T04:35:30;21.23;;;9.82;;
47161;SDS011;32921;53.256;8.198;2023-06-04T04:37:57;23.73;;;9.63;;
47161;SDS011;32921;53.256;8.198;2023-06-04T04:40:23;24.33;;;9.13;;
47161;SDS011;32921;53.256;8.198;2023-06-04T04:42:48;17.25;;;9.15;;
47161;SDS011;32921;53.256;8.198;2023-06-04T04:45:14;15.20;;;9.13;;
47161;SDS011;32921;53.256;8.198;2023-06-04T04:47:40;21.75;;;9.43;;
47161;SDS011;32921;53.256;8.198;2023-06-04T04:50:05;18.25;;;8.80;;
47161;SDS011;32921;53.256;8.198;2023-06-04T04:52:31;24.05;;;9.40;;
47161;SDS011;32921;53.256;8.198;2023-06-04T04:54:57;15.85;;;8.40;;
47161;SDS011;32921;53.256;8.198;2023-06-04T04:57:25;20.88;;;8.25;;
47161;SDS011;32921;53.256;8.198;2023-06-04T04:59:51;17.90;;;7.93;;
47161;SDS011;32921;53.256;8.198;2023-06-04T05:02:17;17.83;;;8.32;;
47161;SDS011;32921;53.256;8.198;2023-06-04T05:04:42;21.05;;;8.07;;
47161;SDS011;32921;53.256;8.198;2023-06-04T05:07:08;15.20;;;7.68;;
47161;SDS011;32921;53.256;8.198;2023-06-04T05:09:34;18.08;;;7.50;;
47161;SDS011;32921;53.256;8.198;2023-06-04T05:11:59;16.00;;;6.63;;
47161;SDS011;32921;53.256;8.198;2023-06-04T05:14:25;19.38;;;5.68;;
47161;SDS011;32921;53.256;8.198;2023-06-04T05:16:51;13.30;;;4.43;;
47161;SDS011;32921;53.256;8.198;2023-06-04T05:19:16;9.60;;;3.65;;
47161;SDS011;32921;53.256;8.198;2023-06-04T05:21:42;13.93;;;3.22;;
47161;SDS011;32921;53.256;8.198;2023-06-04T05:24:09;10.52;;;3.40;;
47161;SDS011;32921;53.256;8.198;2023-06-04T05:26:36;7.95;;;2.50;;
47161;SDS011;32921;53.256;8.198;2023-06-04T05:29:02;7.85;;;2.53;;
47161;SDS011;32921;53.256;8.198;2023-06-04T05:31:29;6.55;;;2.65;;
47161;SDS011;32921;53.256;8.198;2023-06-04T05:33:58;7.13;;;2.50;;
47161;SDS011;32921;53.256;8.198;2023-06-04T05:36:26;7.32;;;2.40;;
47161;SDS011;32921;53.256;8.198;2023-06-04T05:38:52;8.43;;;2.50;;
47161;SDS011;32921;53.256;8.198;2023-06-04T05:41:22;7.60;;;2.65;;
47161;SDS011;32921;53.256;8.198;2023-06-04T05:43:51;9.52;;;2.28;;
47161;SDS011;32921;53.256;8.198;2023-06-04T05:46:17;7.22;;;2.70;;
47161;SDS011;32921;53.256;8.198;2023-06-04T05:48:42;6.57;;;2.40;;
47161;SDS011;32921;53.256;8.198;2023-06-04T05:51:08;11.73;;;3.28;;
47161;SDS011;32921;53.256;8.198;2023-06-04T05:53:34;10.43;;;2.75;;
47161;SDS011;32921;53.256;8.198;2023-06-04T05:55:59;8.77;;;2.50;;
47161;SDS011;32921;53.256;8.198;2023-06-04T05:58:25;10.10;;;2.28;;
47161;SDS011;32921;53.256;8.198;2023-06-04T06:00:50;5.95;;;1.85;;
47161;SDS011;32921;53.256;8.198;2023-06-04T06:03:16;7.70;;;2.20;;
47161;SDS011;32921;53.256;8.198;2023-06-04T06:05:45;10.30;;;2.20;;
47161;SDS011;32921;53.256;8.198;2023-06-04T06:08:11;8.27;;;1.75;;
47161;SDS011;32921;53.256;8.198;2023-06-04T06:10:36;8.05;;;1.77;;
47161;SDS011;32921;53.256;8.198;2023-06-04T06:13:02;6.72;;;2.15;;
47161;SDS011;32921;53.256;8.198;2023-06-04T06:15:28;9.35;;;1.60;;
47161;SDS011;32921;53.256;8.198;2023-06-04T06:17:54;10.15;;;2.05;;
47161;SDS011;32921;53.256;8.198;2023-06-04T06:20:19;7.32;;;1.50;;
47161;SDS011;32921;53.256;8.198;2023-06-04T06:22:47;5.93;;;1.70;;
47161;SDS011;32921;53.256;8.198;2023-06-04T06:25:13;5.45;;;1.67;;
47161;SDS011;32921;53.256;8.198;2023-06-04T06:27:40;6.28;;;1.65;;
47161;SDS011;32921;53.256;8.198;2023-06-04T06:30:07;6.15;;;1.65;;
47161;SDS011;32921;53.256;8.198;2023-06-04T06:32:33;5.90;;;1.50;;
47161;SDS011;32921;53.256;8.198;2023-06-04T06:35:00;5.85;;;2.08;;
47161;SDS011;32921;53.256;8.198;2023-06-04T06:37:26;6.30;;;1.48;;
47161;SDS011;32921;53.256;8.198;2023-06-04T06:39:51;6.65;;;1.70;;
47161;SDS011;32921;53.256;8.198;2023-06-04T06:42:17;6.75;;;1.60;;
47161;SDS011;32921;53.256;8.198;2023-06-04T06:44:46;6.43;;;1.63;;
47161;SDS011;32921;53.256;8.198;2023-06-04T06:47:12;5.55;;;1.50;;
47161;SDS011;32921;53.256;8.198;2023-06-04T06:49:39;4.90;;;1.60;;
47161;SDS011;32921;53.256;8.198;2023-06-04T06:52:05;7.63;;;2.05;;
47161;SDS011;32921;53.256;8.198;2023-06-04T06:54:31;6.38;;;1.75;;
47161;SDS011;32921;53.256;8.198;2023-06-04T06:56:56;7.72;;;1.70;;
47161;SDS011;32921;53.256;8.198;2023-06-04T06:59:22;5.57;;;1.58;;
47161;SDS011;32921;53.256;8.198;2023-06-04T07:01:48;6.85;;;1.63;;
47161;SDS011;32921;53.256;8.198;2023-06-04T07:04:14;6.13;;;1.67;;
47161;SDS011;32921;53.256;8.198;2023-06-04T07:06:41;9.48;;;1.80;;
47161;SDS011;32921;53.256;8.198;2023-06-04T07:09:06;6.20;;;1.60;;
47161;SDS011;32921;53.256;8.198;2023-06-04T07:11:32;5.30;;;1.70;;
47161;SDS011;32921;53.256;8.198;2023-06-04T07:13:58;6.93;;;1.70;;
47161;SDS011;32921;53.256;8.198;2023-06-04T07:16:23;6.85;;;1.60;;
47161;SDS011;32921;53.256;8.198;2023-06-04T07:18:49;8.20;;;1.83;;
47161;SDS011;32921;53.256;8.198;2023-06-04T07:21:15;5.55;;;1.27;;
47161;SDS011;32921;53.256;8.198;2023-06-04T07:23:41;6.03;;;1.55;;
47161;SDS011;32921;53.256;8.198;2023-06-04T07:26:06;5.45;;;1.40;;
47161;SDS011;32921;53.256;8.198;2023-06-04T07:28:32;6.00;;;1.75;;
47161;SDS011;32921;53.256;8.198;2023-06-04T07:30:58;6.43;;;1.58;;
47161;SDS011;32921;53.256;8.198;2023-06-04T07:33:24;4.90;;;1.30;;
47161;SDS011;32921;53.256;8.198;2023-06-04T07:35:50;5.60;;;1.38;;
47161;SDS011;32921;53.256;8.198;2023-06-04T07:38:16;7.68;;;1.45;;
47161;SDS011;32921;53.256;8.198;2023-06-04T07:40:42;5.05;;;1.17;;
47161;SDS011;32921;53.256;8.198;2023-06-04T07:43:08;8.00;;;2.33;;
47161;SDS011;32921;53.256;8.198;2023-06-04T07:45:33;4.07;;;1.40;;
47161;SDS011;32921;53.256;8.198;2023-06-04T07:47:59;5.35;;;1.50;;
47161;SDS011;32921;53.256;8.198;2023-06-04T07:50:25;6.85;;;1.50;;
47161;SDS011;32921;53.256;8.198;2023-06-04T07:52:50;7.45;;;2.05;;
47161;SDS011;32921;53.256;8.198;2023-06-04T07:55:16;4.93;;;1.48;;
47161;SDS011;32921;53.256;8.198;2023-06-04T07:57:42;4.30;;;1.30;;
47161;SDS011;32921;53.256;8.198;2023-06-04T08:00:07;2.63;;;0.90;;
47161;SDS011;32921;53.256;8.198;2023-06-04T08:02:34;3.72;;;1.05;;
47161;SDS011;32921;53.256;8.198;2023-06-04T08:05:00;4.18;;;1.33;;
47161;SDS011;32921;53.256;8.198;2023-06-04T08:07:27;3.33;;;1.20;;
47161;SDS011;32921;53.256;8.198;2023-06-04T08:09:53;7.43;;;1.58;;
47161;SDS011;32921;53.256;8.198;2023-06-04T08:12:20;9.05;;;1.50;;
47161;SDS011;32921;53.256;8.198;2023-06-04T08:14:46;3.95;;;1.05;;
47161;SDS011;32921;53.256;8.198;2023-06-04T08:17:11;5.32;;;1.55;;
47161;SDS011;32921;53.256;8.198;2023-06-04T08:19:37;4.65;;;1.15;;
47161;SDS011;32921;53.256;8.198;2023-06-04T08:22:02;5.35;;;1.30;;
47161;SDS011;32921;53.256;8.198;2023-06-04T08:24:28;7.07;;;1.55;;
47161;SDS011;32921;53.256;8.198;2023-06-04T08:26:55;10.10;;;2.05;;
47161;SDS011;32921;53.256;8.198;2023-06-04T08:29:20;7.38;;;1.48;;
47161;SDS011;32921;53.256;8.198;2023-06-04T08:31:46;8.98;;;2.15;;
47161;SDS011;32921;53.256;8.198;2023-06-04T08:34:11;5.35;;;1.50;;
47161;SDS011;32921;53.256;8.198;2023-06-04T08:36:37;7.63;;;1.77;;
47161;SDS011;32921;53.256;8.198;2023-06-04T08:39:02;4.85;;;1.60;;
47161;SDS011;32921;53.256;8.198;2023-06-04T08:41:29;6.53;;;1.88;;
47161;SDS011;32921;53.256;8.198;2023-06-04T08:43:59;5.35;;;1.70;;
47161;SDS011;32921;53.256;8.198;2023-06-04T08:46:26;6.30;;;1.55;;
47161;SDS011;32921;53.256;8.198;2023-06-04T08:48:54;5.82;;;1.48;;
47161;SDS011;32921;53.256;8.198;2023-06-04T08:51:24;5.50;;;1.35;;
47161;SDS011;32921;53.256;8.198;2023-06-04T08:53:50;7.10;;;1.60;;
47161;SDS011;32921;53.256;8.198;2023-06-04T08:56:19;6.45;;;1.45;;
47161;SDS011;32921;53.256;8.198;2023-06-04T08:58:45;7.63;;;1.52;;
47161;SDS011;32921;53.256;8.198;2023-06-04T09:01:12;5.80;;;1.42;;
47161;SDS011;32921;53.256;8.198;2023-06-04T09:03:39;5.18;;;1.38;;
47161;SDS011;32921;53.256;8.198;2023-06-04T09:06:06;4.93;;;1.42;;
47161;SDS011;32921;53.256;8.198;2023-06-04T09:08:34;6.10;;;1.75;;
47161;SDS011;32921;53.256;8.198;2023-06-04T09:11:05;5.60;;;1.20;;
47161;SDS011;32921;53.256;8.198;2023-06-04T09:13:34;7.03;;;1.73;;
47161;SDS011;32921;53.256;8.198;2023-06-04T09:16:01;6.00;;;1.65;;
47161;SDS011;32921;53.256;8.198;2023-06-04T09:18:28;9.57;;;1.83;;
47161;SDS011;32921;53.256;8.198;2023-06-04T09:21:04;4.07;;;1.08;;
47161;SDS011;32921;53.256;8.198;2023-06-04T09:23:31;7.30;;;1.60;;
47161;SDS011;32921;53.256;8.198;2023-06-04T09:26:09;6.88;;;1.65;;
47161;SDS011;32921;53.256;8.198;2023-06-04T09:28:35;4.68;;;1.05;;
47161;SDS011;32921;53.256;8.198;2023-06-04T09:31:07;6.05;;;1.27;;
47161;SDS011;32921;53.256;8.198;2023-06-04T09:33:47;5.70;;;1.30;;
47161;SDS011;32921;53.256;8.198;2023-06-04T09:36:14;4.95;;;1.30;;
47161;SDS011;32921;53.256;8.198;2023-06-04T09:38:40;4.57;;;1.50;;
47161;SDS011;32921;53.256;8.198;2023-06-04T09:41:16;7.32;;;1.83;;
47161;SDS011;32921;53.256;8.198;2023-06-04T09:43:44;5.10;;;1.23;;
47161;SDS011;32921;53.256;8.198;2023-06-04T09:46:11;5.63;;;1.30;;
47161;SDS011;32921;53.256;8.198;2023-06-04T09:48:38;5.53;;;1.50;;
47161;SDS011;32921;53.256;8.198;2023-06-04T09:51:14;6.68;;;1.20;;
47161;SDS011;32921;53.256;8.198;2023-06-04T09:53:43;3.97;;;1.33;;
47161;SDS011;32921;53.256;8.198;2023-06-04T09:56:19;6.45;;;1.38;;
47161;SDS011;32921;53.256;8.198;2023-06-04T09:58:46;6.25;;;1.10;;
47161;SDS011;32921;53.256;8.198;2023-06-04T10:01:14;5.65;;;1.48;;
47161;SDS011;32921;53.256;8.198;2023-06-04T10:03:41;6.45;;;2.08;;
47161;SDS011;32921;53.256;8.198;2023-06-04T10:06:11;6.20;;;1.50;;
47161;SDS011;32921;53.256;8.198;2023-06-04T10:08:40;4.28;;;1.20;;
47161;SDS011;32921;53.256;8.198;2023-06-04T10:11:07;3.67;;;1.23;;
47161;SDS011;32921;53.256;8.198;2023-06-04T10:13:47;6.10;;;1.40;;
47161;SDS011;32921;53.256;8.198;2023-06-04T10:16:18;4.10;;;1.35;;
47161;SDS011;32921;53.256;8.198;2023-06-04T10:18:45;4.88;;;1.30;;
47161;SDS011;32921;53.256;8.198;2023-06-04T10:21:12;4.15;;;0.98;;
47161;SDS011;32921;53.256;8.198;2023-06-04T10:23:39;4.80;;;1.40;;
47161;SDS011;32921;53.256;8.198;2023-06-04T10:26:06;5.68;;;1.20;;
47161;SDS011;32921;53.256;8.198;2023-06-04T10:28:33;4.88;;;1.20;;
47161;SDS011;32921;53.256;8.198;2023-06-04T10:31:00;2.50;;;1.15;;
47161;SDS011;32921;53.256;8.198;2023-06-04T10:33:25;3.30;;;0.93;;
47161;SDS011;32921;53.256;8.198;2023-06-04T10:35:53;3.88;;;1.17;;
47161;SDS011;32921;53.256;8.198;2023-06-04T10:38:22;4.82;;;1.45;;
47161;SDS011;32921;53.256;8.198;2023-06-04T10:40:48;6.82;;;1.70;;
47161;SDS011;32921;53.256;8.198;2023-06-04T10:43:14;4.50;;;1.40;;
47161;SDS011;32921;53.256;8.198;2023-06-04T10:45:44;5.28;;;1.27;;
47161;SDS011;32921;53.256;8.198;2023-06-04T10:48:10;5.00;;;1.10;;
47161;SDS011;32921;53.256;8.198;2023-06-04T10:50:50;6.13;;;1.42;;
47161;SDS011;32921;53.256;8.198;2023-06-04T10:53:18;4.90;;;1.25;;
47161;SDS011;32921;53.256;8.198;2023-06-04T10:55:45;4.20;;;1.15;;
47161;SDS011;32921;53.256;8.198;2023-06-04T10:58:12;4.07;;;1.20;;
47161;SDS011;32921;53.256;8.198;2023-06-04T11:00:38;4.45;;;1.45;;
47161;SDS011;32921;53.256;8.198;2023-06-04T11:03:05;3.95;;;1.23;;
47161;SDS011;32921;53.256;8.198;2023-06-04T11:05:39;3.22;;;1.13;;
47161;SDS011;32921;53.256;8.198;2023-06-04T11:08:09;4.18;;;1.42;;
47161;SDS011;32921;53.256;8.198;2023-06-04T11:10:40;7.30;;;1.35;;
47161;SDS011;32921;53.256;8.198;2023-06-04T11:13:07;6.40;;;1.42;;
47161;SDS011;32921;53.256;8.198;2023-06-04T11:15:42;4.47;;;1.30;;
47161;SDS011;32921;53.256;8.198;2023-06-04T11:18:20;5.18;;;1.17;;
47161;SDS011;32921;53.256;8.198;2023-06-04T11:20:47;4.85;;;1.20;;
47161;SDS011;32921;53.256;8.198;2023-06-04T11:23:14;5.10;;;1.42;;
47161;SDS011;32921;53.256;8.198;2023-06-04T11:25:42;5.82;;;1.20;;
47161;SDS011;32921;53.256;8.198;2023-06-04T11:28:14;4.97;;;1.20;;
47161;SDS011;32921;53.256;8.198;2023-06-04T11:30:42;5.95;;;1.35;;
47161;SDS011;32921;53.256;8.198;2023-06-04T11:33:07;4.43;;;1.00;;
47161;SDS011;32921;53.256;8.198;2023-06-04T11:35:39;4.93;;;1.25;;
47161;SDS011;32921;53.256;8.198;2023-06-04T11:38:06;5.00;;;1.40;;
47161;SDS011;32921;53.256;8.198;2023-06-04T11:40:32;3.47;;;1.10;;
47161;SDS011;32921;53.256;8.198;2023-06-04T11:42:57;3.92;;;1.77;;
47161;SDS011;32921;53.256;8.198;2023-06-04T11:45:23;4.57;;;1.40;;
47161;SDS011;32921;53.256;8.198;2023-06-04T11:47:53;2.92;;;1.10;;
47161;SDS011;32921;53.256;8.198;2023-06-04T11:50:21;3.28;;;1.15;;
47161;SDS011;32921;53.256;8.198;2023-06-04T11:52:47;4.45;;;0.85;;
47161;SDS011;32921;53.256;8.198;2023-06-04T11:55:14;3.40;;;1.05;;
47161;SDS011;32921;53.256;8.198;2023-06-04T11:57:43;4.18;;;1.10;;
47161;SDS011;32921;53.256;8.198;2023-06-04T12:00:09;5.78;;;1.50;;
47161;SDS011;32921;53.256;8.198;2023-06-04T12:02:38;3.80;;;1.08;;
47161;SDS011;32921;53.256;8.198;2023-06-04T12:05:13;3.22;;;1.30;;
47161;SDS011;32921;53.256;8.198;2023-06-04T12:07:40;3.55;;;1.10;;
47161;SDS011;32921;53.256;8.198;2023-06-04T12:10:06;3.05;;;1.15;;
47161;SDS011;32921;53.256;8.198;2023-06-04T12:12:33;6.05;;;1.17;;
47161;SDS011;32921;53.256;8.198;2023-06-04T12:15:00;4.32;;;1.15;;
47161;SDS011;32921;53.256;8.198;2023-06-04T12:17:25;3.85;;;0.90;;
47161;SDS011;32921;53.256;8.198;2023-06-04T12:19:51;3.72;;;0.90;;
47161;SDS011;32921;53.256;8.198;2023-06-04T12:22:17;2.63;;;1.05;;
47161;SDS011;32921;53.256;8.198;2023-06-04T12:24:47;3.00;;;1.00;;
47161;SDS011;32921;53.256;8.198;2023-06-04T12:27:19;5.03;;;1.02;;
47161;SDS011;32921;53.256;8.198;2023-06-04T12:32:24;2.42;;;1.00;;
47161;SDS011;32921;53.256;8.198;2023-06-04T12:34:50;2.85;;;0.90;;
47161;SDS011;32921;53.256;8.198;2023-06-04T12:37:16;2.05;;;0.80;;
47161;SDS011;32921;53.256;8.198;2023-06-04T12:39:41;4.20;;;1.00;;
47161;SDS011;32921;53.256;8.198;2023-06-04T12:42:08;2.30;;;1.02;;
47161;SDS011;32921;53.256;8.198;2023-06-04T12:44:40;4.03;;;0.98;;
47161;SDS011;32921;53.256;8.198;2023-06-04T12:47:06;1.88;;;0.80;;
47161;SDS011;32921;53.256;8.198;2023-06-04T12:49:32;3.38;;;1.00;;
47161;SDS011;32921;53.256;8.198;2023-06-04T12:51:59;4.40;;;1.52;;
47161;SDS011;32921;53.256;8.198;2023-06-04T12:54:24;2.65;;;0.90;;
47161;SDS011;32921;53.256;8.198;2023-06-04T12:56:51;4.43;;;1.23;;
47161;SDS011;32921;53.256;8.198;2023-06-04T12:59:18;2.42;;;0.90;;
47161;SDS011;32921;53.256;8.198;2023-06-04T13:01:43;2.08;;;0.90;;
47161;SDS011;32921;53.256;8.198;2023-06-04T13:04:09;2.22;;;0.95;;
47161;SDS011;32921;53.256;8.198;2023-06-04T13:06:35;1.60;;;0.98;;
47161;SDS011;32921;53.256;8.198;2023-06-04T13:09:02;2.78;;;1.10;;
47161;SDS011;32921;53.256;8.198;2023-06-04T13:11:28;2.78;;;0.93;;
47161;SDS011;32921;53.256;8.198;2023-06-04T13:13:54;2.97;;;1.00;;
47161;SDS011;32921;53.256;8.198;2023-06-04T13:16:19;3.10;;;1.00;;
47161;SDS011;32921;53.256;8.198;2023-06-04T13:18:45;5.07;;;1.20;;
47161;SDS011;32921;53.256;8.198;2023-06-04T13:21:11;4.07;;;0.80;;
47161;SDS011;32921;53.256;8.198;2023-06-04T13:23:37;3.80;;;0.82;;
47161;SDS011;32921;53.256;8.198;2023-06-04T13:26:02;4.30;;;1.10;;
47161;SDS011;32921;53.256;8.198;2023-06-04T13:28:28;2.97;;;1.00;;
47161;SDS011;32921;53.256;8.198;2023-06-04T13:30:53;3.97;;;1.20;;
47161;SDS011;32921;53.256;8.198;2023-06-04T13:33:19;3.63;;;1.10;;
47161;SDS011;32921;53.256;8.198;2023-06-04T13:35:46;3.35;;;1.20;;
47161;SDS011;32921;53.256;8.198;2023-06-04T13:38:12;2.78;;;0.90;;
47161;SDS011;32921;53.256;8.198;2023-06-04T13:40:37;4.53;;;1.42;;
47161;SDS011;32921;53.256;8.198;2023-06-04T13:43:04;5.80;;;1.15;;
47161;SDS011;32921;53.256;8.198;2023-06-04T13:45:31;3.95;;;1.10;;
47161;SDS011;32921;53.256;8.198;2023-06-04T13:47:57;5.07;;;1.58;;
47161;SDS011;32921;53.256;8.198;2023-06-04T13:50:27;4.45;;;1.33;;
47161;SDS011;32921;53.256;8.198;2023-06-04T13:52:53;4.25;;;1.40;;
47161;SDS011;32921;53.256;8.198;2023-06-04T13:55:18;4.72;;;1.25;;
47161;SDS011;32921;53.256;8.198;2023-06-04T13:57:44;5.63;;;1.30;;
47161;SDS011;32921;53.256;8.198;2023-06-04T14:00:10;5.97;;;1.52;;
47161;SDS011;32921;53.256;8.198;2023-06-04T14:02:38;3.28;;;1.20;;
47161;SDS011;32921;53.256;8.198;2023-06-04T14:05:04;5.20;;;1.33;;
47161;SDS011;32921;53.256;8.198;2023-06-04T14:07:30;5.38;;;1.35;;
47161;SDS011;32921;53.256;8.198;2023-06-04T14:09:56;5.15;;;1.58;;
47161;SDS011;32921;53.256;8.198;2023-06-04T14:12:24;5.05;;;1.50;;
47161;SDS011;32921;53.256;8.198;2023-06-04T14:14:50;3.08;;;1.17;;
47161;SDS011;32921;53.256;8.198;2023-06-04T14:17:15;6.65;;;1.30;;
47161;SDS011;32921;53.256;8.198;2023-06-04T14:19:41;6.07;;;1.60;;
47161;SDS011;32921;53.256;8.198;2023-06-04T14:22:07;3.80;;;1.25;;
47161;SDS011;32921;53.256;8.198;2023-06-04T14:24:32;6.10;;;1.40;;
47161;SDS011;32921;53.256;8.198;2023-06-04T14:26:58;3.17;;;1.40;;
47161;SDS011;32921;53.256;8.198;2023-06-04T14:29:24;6.43;;;1.70;;
47161;SDS011;32921;53.256;8.198;2023-06-04T14:31:49;4.20;;;1.58;;
47161;SDS011;32921;53.256;8.198;2023-06-04T14:34:15;4.72;;;1.52;;
47161;SDS011;32921;53.256;8.198;2023-06-04T14:36:40;5.43;;;1.67;;
47161;SDS011;32921;53.256;8.198;2023-06-04T14:39:06;4.57;;;1.60;;
47161;SDS011;32921;53.256;8.198;2023-06-04T14:41:32;4.07;;;1.50;;
47161;SDS011;32921;53.256;8.198;2023-06-04T14:43:58;5.22;;;1.48;;
47161;SDS011;32921;53.256;8.198;2023-06-04T14:46:24;6.07;;;1.80;;
47161;SDS011;32921;53.256;8.198;2023-06-04T14:48:50;7.03;;;1.60;;